• Back
  •  
  • Position of Reservoir Gates
S.No.
No. of opened gates
Position of opening (In m)
Reporting Date
Reporting Time
Discharge in Cumecs
Discharge in Cusecs
Actual date and time of Gate opening
1
2
3
4
5
6
7
8
1 0 18/09/2012 7:22:40 AM 0
2 4 23/08/2012 6:50:33 AM 1317.48
3 4 23/08/2012 9:02:26 AM 1060.28
4 4 23/08/2012 6:45:22 PM 403.67
5 4 24/08/2012 6:21:12 AM 201.54
6 4 24/08/2012 8:20:02 AM 201.54
7 2 25/08/2012 6:47:41 AM 67.14
8 2 25/08/2012 6:47:41 AM 67.14
9 2 25/08/2012 8:41:40 AM 67.14
10 2 26/08/2012 7:14:17 AM 67.14
11 0 27/08/2012 7:35:02 AM 0
12 0 28/08/2012 7:31:50 AM 0
13 4 29/08/2012 6:14:13 AM 402.76
14 2 29/08/2012 6:41:18 AM 133.96
15 4 30/08/2012 5:55:04 AM 399.1
16 4 30/08/2012 6:29:35 AM 397
17 4 30/08/2012 8:39:56 AM 394.67
18 0 19/09/2012 6:08:24 AM 0
19 0 20/09/2012 9:11:36 AM 0
20 0 21/09/2012 11:25:07 AM 0
21 0 22/09/2012 6:10:41 AM 0
22 0 23/09/2012 6:10:00 AM 0
23 0 12/09/2012 6:08:38 AM 0
24 4 12/09/2012 12:58:06 PM 949.38
25 4 12/09/2012 1:25:13 PM 949.38
26 2 31/08/2012 9:25:15 AM 63.01
27 2 31/08/2012 9:46:26 AM 63.01
28 2 31/08/2012 2:55:29 PM 65.32
29 2 01/09/2012 12:42:04 PM 65.32
30 0 01/09/2012 5:27:38 PM 0
31 0 03/09/2012 8:21:28 AM 0
32 0 03/09/2012 12:04:26 PM 0
33 0 04/09/2012 7:47:08 AM 0
34 0 05/09/2012 8:14:09 AM 0
35 2 13/09/2012 6:14:25 AM 134.56
36 0 14/09/2012 2:43:47 PM 0
37 0 15/09/2012 6:35:28 AM 0
38 0 16/09/2012 7:40:37 AM 0
39 0 17/09/2012 7:42:32 AM 0
40 0 07/09/2012 4:15:07 PM 0
41 0 07/09/2012 6:23:58 PM 0
42 0 08/09/2012 7:02:57 AM 0
43 0 09/09/2012 8:05:28 AM 0
44 0 10/09/2012 7:33:15 AM 0
45 0 11/09/2012 6:41:44 AM 0
46 0 01/10/2012 7:17:44 AM 0
47 0 02/10/2012 7:55:48 AM 0
48 0 03/10/2012 7:22:17 AM 0
49 0 05/10/2012 8:22:50 AM 0
50 0 07/10/2012 8:05:08 AM 0
51 0 08/11/2012 8:53:47 AM 0
52 6 20/07/2013 4:16:18 PM 1394.84
53 6 21/07/2013 6:55:18 AM 596.75
54 0 21/07/2013 4:02:13 PM 0
55 4 22/07/2013 6:50:13 AM 358.34
56 4 23/07/2013 6:58:18 AM 355
57 4 23/07/2013 7:43:18 AM 354.27
58 2 24/07/2013 7:50:50 AM 57.91
59 0 24/07/2013 2:47:40 PM 0
60 2 27/07/2013 7:38:39 AM 117.6
61 2 28/07/2013 7:50:39 AM 116.9
62 6 28/07/2013 8:29:39 PM 703.53
63 8 29/07/2013 12:29:39 AM 2347.6
64 8 29/07/2013 7:44:39 AM 2347.56
65 8 29/07/2013 8:53:07 AM 2347.56
66 8 29/07/2013 12:32:07 PM 2333.09
67 8 29/07/2013 4:14:07 PM 2326.09
68 8 29/07/2013 8:22:37 PM 2333.09
69 8 30/07/2013 9:38:16 AM 3069.87
70 8 30/07/2013 10:44:30 AM 3069.87
71 8 30/07/2013 12:38:30 PM 3069.87
72 8 30/07/2013 12:38:30 PM 3069.87
73 6 31/07/2013 8:32:24 AM 717.92
74 6 31/07/2013 10:50:24 AM 1192.7
75 6 01/08/2013 9:43:22 AM 1165.25
76 6 01/08/2013 10:25:49 AM 1165.25
77 6 02/08/2013 7:58:49 AM 1161.6
78 4 04/08/2013 8:00:46 AM 294.97
79 0 05/08/2013 8:06:46 AM 0
80 0 06/08/2013 8:28:53 AM 0
81 0 07/08/2013 7:42:46 AM 0
82 0 08/08/2013 7:45:46 AM 0
83 4 09/08/2013 6:12:46 AM 367
84 4 09/08/2013 7:36:46 AM 371.01
85 6 09/08/2013 1:00:46 PM 865.27
86 6 09/08/2013 8:00:46 PM 1938.92
87 6 10/08/2013 8:03:46 AM 1894.9
88 8 10/08/2013 4:57:46 PM 2381.37
89 8 10/08/2013 7:51:49 PM 2845.37
90 8 11/08/2013 7:52:00 AM 2845.37
91 8 11/08/2013 4:10:02 PM 2852.32
92 0 12/08/2013 8:40:33 AM 0
93 0 12/08/2013 8:40:33 AM 0
94 0 12/08/2013 8:40:33 AM 0
95 2 12/08/2013 7:17:29 PM 283.24
96 6 13/08/2013 8:26:29 AM 1200.99
97 6 14/08/2013 8:49:58 AM 985.37
98 2 14/08/2013 3:01:58 PM 247.56
99 2 14/08/2013 8:37:58 PM 248.88
100 2 15/08/2013 7:52:58 AM 62.59
101 0 15/08/2013 1:37:26 PM 0
102 0 16/08/2013 7:04:26 AM 0
103 0 17/08/2013 8:01:26 AM 0
104 2 17/08/2013 10:42:54 PM 189.94
105 2 18/08/2013 8:12:54 AM 189.94
106 2 18/08/2013 12:27:54 PM 189.46
107 2 18/08/2013 8:09:54 PM 188.97
108 2 19/08/2013 12:13:10 PM 63.61
109 4 20/08/2013 8:00:34 AM 384.68
110 4 20/08/2013 11:50:40 AM 765.85
111 6 20/08/2013 2:14:40 PM 1021.49
112 6 20/08/2013 7:58:10 PM 1021.49
113 6 21/08/2013 8:01:10 AM 768
114 6 21/08/2013 6:13:10 PM 1021.49
115 6 21/08/2013 9:28:10 PM 1279.17
116 8 22/08/2013 7:07:10 AM 1151.82
117 6 22/08/2013 2:40:12 PM 770.59
118 4 22/08/2013 4:16:12 PM 386.19
119 4 23/08/2013 4:04:12 PM 387.14
120 4 23/08/2013 8:10:12 PM 515.38
121 4 24/08/2013 11:58:12 AM 1058.49
122 2 25/08/2013 8:33:56 AM 65.17
123 0 26/08/2013 8:08:37 AM 0
124 0 27/08/2013 7:14:37 AM 0
125 0 27/08/2013 7:56:37 AM 0
126 0 28/08/2013 8:02:06 AM 0
127 0 29/08/2013 7:47:13 AM 0
128 0 30/08/2013 7:59:16 AM 0
129 0 31/08/2013 8:13:45 AM 0
130 0 01/09/2013 7:46:45 AM 0
131 0 02/09/2013 7:52:45 AM 0
132 0 03/09/2013 6:37:14 AM 0
133 0 03/09/2013 7:58:14 AM 0
134 0 04/09/2013 7:34:17 AM 0
135 0 05/09/2013 7:55:18 AM 0
136 0 06/09/2013 7:49:18 AM 0
137 0 07/09/2013 8:01:18 AM 0
138 0 08/09/2013 7:55:18 AM 0
139 0 09/09/2013 7:58:18 AM 0
140 0 12/09/2013 8:03:17 AM 0
141 6 16/08/2015 12:26:00 PM 1500
142 6 16/08/2015 4:18:00 PM 1121
143 4 16/08/2015 9:06:00 PM 252
144 4 17/08/2015 7:50:18 AM 252
145 4 17/08/2015 9:14:18 AM 252
146 4 17/08/2015 11:58:18 AM 254
147 0 18/08/2015 8:11:58 AM 0
148 6 19/08/2015 8:39:58 AM 598
149 6 19/08/2015 11:51:58 AM 584
150 4 19/08/2015 12:31:58 PM 390
151 2 19/08/2015 4:03:58 PM 195
152 2 19/08/2015 4:07:58 PM 195
153 0 19/08/2015 6:11:58 PM 0
154 0 20/08/2015 7:47:58 AM 0
155 0 21/08/2015 7:55:58 AM 0
156 0 23/08/2015 7:36:46 AM 0
157 0 24/08/2015 7:31:38 AM 0
158 6 0.75 24/08/2020 8:00:00 AM 159.2 5622.15 1) 2 gates opened 0.50 m 2) 2 gates opened 0.75 m 3) 2 gates opened 1.0 m Total opening is 4.5 m
159 2 0.5 24/08/2020 6:00:00 PM 31 1094.76
160 2 0.13 25/08/2020 10:00:00 AM 32.7 1154.8
161 2 0.13 26/08/2020 12:00:00 AM 32.7 1154.8
162 2 0.13 27/08/2020 12:00:00 AM 32.7 1154.8
163 2 0.13 28/08/2020 12:00:00 AM 32.7 1154.8
164 4 0.75 27/07/2016 3:00:00 PM 390 13772.85 2 gates - 1.0m opening 2 gates-0.50m opening Average 0.75m opening
165 6 1 27/07/2016 4:00:00 PM 520 18363.8 2 gates-2.0m open,2 gates-0.75m open 2 gates-0.25m open,Average opening 1.0m
166 2 0.25 28/07/2016 4:01:00 AM 65 2295.47
167 2 0.25 29/07/2016 12:01:00 AM 65 2295.47
168 2 0.25 31/07/2016 12:01:00 AM 65 2295.47 Dt of opening 28/7/2016 4PM
169 6 4.01 01/08/2016 9:01:00 PM 320.3 11311.39
170 6 0.5 29/08/2020 4:45:00 PM 403.7 14256.67
171 2 0.25 30/07/2016 12:01:00 AM 65 2295.47 Dt of opening 28/7/2016 4.00PM
172 2 0.25 01/08/2016 12:01:00 AM 65 2295.47 gate open 28/07/2016 4:00 PM
173 2 0.5 03/08/2016 12:00:00 AM 131 4626.26 02 Nos Gates are opened since 4.00PM Dated 02/08/2016
174 6 0.5 30/08/2020 12:00:00 AM 403.7 14256.67 Gates opened on dated 29.08.2020 at 2.45PM
175 6 0.5 30/08/2020 8:00:00 AM 403.7 14256.67
176 2 2.5 01/08/2016 8:00:00 AM 328 11583.32
177 2 2.5 01/08/2016 5:00:00 PM 328 11583.32
178 6 4 02/08/2016 12:00:00 PM 320.3 11311.39
179 2 0.5 02/08/2016 4:00:00 PM 131 4626.26
180 2 0.5 03/08/2016 10:45:00 AM 231.8 8186.02
181 2 0.5 03/08/2016 4:01:00 PM 131 4626.26
182 2 0.5 04/08/2016 12:01:00 AM 131 4626.26 gate opening 3/8/2016 4 PM
183 6 0.83 04/08/2016 12:30:00 PM 655 23131.32 Average opening-0.83m
184 6 1.5 04/08/2016 1:25:00 PM 1177 41565.75
185 6 0.5 30/08/2020 12:00:00 PM 403.7 14256.67
186 6 0.58 30/08/2020 10:00:00 PM 470 16598.05
187 6 0.58 31/08/2020 8:00:00 AM 470 16598.05 Gates Opened on Dated 30.08.2020 at 4.00 PM
188 6 0.66 05/08/2016 12:01:00 AM 589.3 20811.13 Gate open 4/8/2016 8.00 PM.Av. opening-0.66m
189 4 0.75 07/08/2016 5:00:00 AM 399 14090.68
190 6 0.75 07/08/2016 1:30:00 PM 667.5 23572.76
191 6 1.5 07/08/2016 6:01:00 PM 1196 42236.74 Av opening-1.50m
192 8 1.81 08/08/2016 8:01:00 AM 1901 67133.82 Av. opening-1.81m
193 4 0.37 01/09/2020 12:00:00 AM 202 7133.63 31/08/2020 12.00PM
194 2 0.25 09/08/2016 5:00:00 AM 66 2330.79
195 2 0.25 10/08/2016 12:00:00 AM 66 2330.79 Gate open 9/8/2016 5 AM
196 2 0.25 11/08/2016 12:00:00 AM 66 2330.79 Gate open -9/8/2016 5 AM
197 2 0.5 11/08/2016 6:00:00 PM 134.8 4760.46
198 2 0.5 12/08/2016 12:00:00 AM 134 4732.21 Gate open 11/8/2016 6 PM
199 2 0.25 12/08/2016 12:30:00 PM 67 2366.11
200 0 0 12/08/2016 6:00:00 PM 0 0
201 2 0.5 16/08/2016 12:00:00 AM 135 4767.52 gate open 15/8/2016 1 PM
202 2 0.25 24/08/2016 8:01:00 AM 67 2366.11
203 2 0.5 15/08/2016 1:00:00 PM 135 4767.52
204 2 0.25 16/08/2016 8:30:00 AM 68 2401.42
205 4 0.6 14/08/2016 1:00:00 PM 337 11901.15 Average opening-0.60
206 2 0.25 23/08/2016 8:01:00 AM 75 2648.63
207 4 0.62 13/08/2016 7:30:00 PM 336 11865.84
208 6 0.83 14/08/2016 12:00:00 AM 673 23766.99 gate open 13/8/2016 8:30 PM
209 5 1.6 21/08/2016 8:01:00 AM 1000 35315
210 2 0.25 15/08/2016 2:30:00 AM 33.79 1193.29
211 2 0.25 22/08/2016 8:30:00 AM 67 2366.11
212 10 9 03/08/2021 8:00:00 AM 10800 381402 03/08/2021
213 10 9 04/08/2021 8:00:00 AM 10800 381402 03/08/2021
214 10 9 04/08/2021 10:00:00 AM 500 17657.5
215 10 0.5 05/08/2021 8:00:00 AM 600 21189 05/08/2021
216 6 1.42 05/08/2021 8:00:00 PM 1021 36056.61
217 8 1.4 21/08/2016 4:01:00 PM 1472 51983.68 Av. opening-1.4m
218 8 1.56 21/08/2016 4:30:00 PM 1672 59046.68 Av open - 1.562
219 8 2.5 06/08/2021 8:00:00 AM 2531 89382.26 06/08/2021
220 10 4.5 07/08/2021 8:00:00 AM 4312 152278.28 07/08/2021
221 10 4.5 07/08/2021 12:00:00 PM 4230 149382.45 07/08/2021
222 8 2.5 08/08/2021 8:00:00 AM 2196 77551.74 08/08/2021
223 8 2.5 08/08/2021 8:00:00 AM 2196 77551.74 08/08/2021
224 0 0 08/08/2021 1:30:00 PM 0 0
225 4 2.12 09/08/2021 4:00:00 PM 1033 36480.39
226 4 2 10/08/2021 8:00:00 AM 1006 35526.89 10/08/2021
227 0 0 16/08/2016 7:00:00 PM 0 0 closed
228 8 3.06 20/08/2016 8:45:00 AM 3251 114809.06 Av opening 3.062 m
229 8 1.25 20/08/2016 4:01:00 PM 1333 47074.89
230 4 2 10/08/2021 4:00:00 PM 1006 35526.89
231 4 3 11/08/2021 8:00:00 AM 361 12748.71 11/08/2021
232 0 0 11/08/2021 12:00:00 PM 0 0 Gate CLosed
233 2 0.25 17/08/2021 8:00:00 AM 32.44 1145.62 17/08/2021
234 2 0.25 18/08/2021 8:00:00 AM 34.44 1216.25 17/08/2021
235 2 0.25 19/08/2021 8:00:00 AM 32.44 1145.62 18/08/2021
236 4 0.5 19/08/2021 8:00:00 PM 260.5 9199.56
237 8 2.31 20/08/2016 7:00:00 AM 2476 87439.94 Av opening 2.31 m
238 2 0.75 22/08/2016 12:00:00 AM 202 7133.63 gate open 21/8/2016 11 PM
239 4 1 20/08/2021 8:00:00 AM 651.7 23014.79 20/08/2021
240 4 1.25 21/08/2021 8:00:00 AM 651.7 23014.79 20/08/2021
241 2 0.25 23/08/2021 8:00:00 AM 32.5 1147.74 23/08/2021
242 2 0.25 23/08/2021 8:00:00 AM 30.5 1077.11 23/08/2021
243 8 0.87 20/08/2016 5:00:00 PM 665 23484.47
244 2 0.5 24/08/2016 6:30:00 PM 135 4767.52
245 2 0.5 25/08/2016 6:30:00 AM 68 2401.42
246 0 0 23/08/2021 12:00:00 PM 0 0 23/08/2021 Gate Closed
247 2 0.13 11/09/2021 8:00:00 AM 34.31 1211.66
248 2 0.13 11/09/2021 8:00:00 AM 34.31 1211.66
249 2 0.13 12/09/2021 12:00:00 PM 34.31 1211.66
250 2 1.5 13/09/2021 8:00:00 AM 205.8 7267.83 13.9.21 8am
251 2 0.5 29/08/2016 5:30:00 AM 136 4802.84
252 2 0.25 29/08/2016 12:30:00 PM 68.02 2402.13 Gate open-29/8/2016 12:30 PM
253 0 0 30/08/2016 6:30:00 AM 0 0 Closed
254 2 0.25 13/09/2021 12:00:00 PM 34.31 1211.66 13.9.21 12 pm
255 2 0.25 14/09/2021 8:00:00 AM 175 6180.13 14.9.21 12 am
256 2 0.25 14/09/2021 4:00:00 PM 34.45 1216.6
257 1 0.13 15/09/2021 8:00:00 AM 17.22 608.12 15.9.21 8am
258 1 0.13 15/09/2021 12:00:00 PM 17 600.36 15.9.21 12am
259 5 0.12 16/09/2021 12:00:00 PM 17.22 608.12 16.9.21 12 am
260 5 0.13 17/09/2021 8:00:00 AM 17.22 608.12 17/09/2021
261 8 0.13 18/09/2021 8:00:00 AM 17.22 608.12 18/09/2021
262 5 0.13 18/09/2021 12:00:00 PM 17.22 608.12
263 2 0.25 19/09/2021 8:00:00 AM 208 7345.52
264 2 0.5 19/09/2021 12:00:00 PM 273 9640.99
265 5 0.13 20/09/2021 8:00:00 AM 157.6 5565.64 20/09/2021
266 5 0.12 20/09/2021 12:00:00 PM 172.2 6081.24 20.9.21 12 am
267 5 0.12 20/09/2021 4:00:00 PM 17.22 608.12
268 5 0.13 21/09/2021 8:00:00 AM 17.22 608.12 21/09/2021
269 1 0.13 21/09/2021 8:00:00 AM 17.22 608.12 21/09/2021
270 0 0 21/09/2021 8:00:00 PM 0 0
271 2 0.25 23/09/2021 8:00:00 AM 68.92 2433.91 23/09/2021
272 4 1 23/09/2021 8:00:00 AM 547.4 19331.43 23/09/2021
273 2 0.5 23/09/2021 12:00:00 PM 137.8 4866.41 23.9.21 12pm
274 4 0.62 23/09/2021 4:00:00 PM 345 12183.67
275 2 0.5 24/09/2021 8:00:00 AM 280 9888.2 24/09/2021
276 1 0.13 24/09/2021 4:00:00 PM 17.22 608.12
277 1 0.13 25/09/2021 8:00:00 AM 0.487 17.2
278 1 0.13 25/09/2021 8:00:00 AM 17.22 608.12
279 2 0.15 27/09/2021 12:00:00 PM 34.45 1216.6 27.9.21 12 pm
280 1 0.13 28/09/2021 8:00:00 AM 17.22 608.12 28.9.21 8am
281 1 0.13 28/09/2021 4:00:00 PM 17.22 608.12
282 1 0.13 03/10/2021 8:00:00 AM 17.26 609.54
283 0 0 04/09/2018 11:55:00 AM 0 0 All getaes closed at 11:55AM
284 2 0.25 06/09/2018 7:15:00 AM 67.5 2383.76
285 6 0.83 06/09/2018 4:00:00 PM 678.1 23947.1
286 4 1.25 04/09/2018 4:00:00 AM 650 22954.75
287 2 0.25 04/09/2018 10:00:00 AM 65 2295.47
288 4 0.63 10/09/2018 4:00:00 AM 342 12077.73 av.gate opening 0.625 m
289 2 0.13 10/09/2018 12:30:00 PM 34 1200.71 2 gates 0.125m each
290 2 0.13 11/09/2018 12:01:00 AM 34 1200.71 each gate opening 0.125m since 10/9/2018 (12:30pm)
291 2 0.25 11/09/2018 8:00:00 AM 137.2 4845.22
292 2 0.25 12/09/2018 12:01:00 AM 137.2 4845.22
293 8 2 16/08/2019 3:30:00 PM 2066 72960.79
294 8 2 17/08/2019 12:05:00 AM 2066 72960.79
295 4 1.5 17/08/2019 8:00:00 AM 200 7063
296 4 1.5 18/08/2019 12:25:00 AM 200 7063
297 0 0 18/08/2019 5:40:00 PM 0 0 all gates are closed at 5:40pm
298 0 0.13 18/08/2019 6:30:00 AM 33.42 1180.23
299 0 0 18/08/2019 4:40:00 PM 0 0 all gates are closed
300 4 0.4 24/08/2019 11:30:00 AM 201.9 7133.49
301 6 0.67 24/08/2019 6:30:00 PM 537.3 18974.75
302 6 0.75 24/08/2019 9:00:00 PM 1198 42307.37
303 8 0.75 25/08/2019 12:01:00 AM 1198 42307.37
304 6 1.91 25/08/2019 8:00:00 AM 1525 53855.38
305 6 1.5 26/08/2019 12:04:00 AM 1198 42307.37
306 8 1.85 26/08/2019 8:00:00 AM 1988 70206.22
307 4 1.28 26/08/2019 6:00:00 PM 733.7 25912.03
308 4 1.28 27/08/2019 12:02:00 AM 733.7 25910.62
309 2 0.25 27/08/2019 5:00:00 AM 67.43 2381.57
310 0 0 27/08/2019 10:30:00 AM 0 0
311 2 0.13 29/08/2019 12:10:00 PM 34.16 1206.47
312 4 0.38 28/08/2019 9:00:00 AM 204 7204.26
313 4 1.5 28/08/2019 7:00:00 AM 204 7204.26
314 2 0.25 28/08/2019 8:30:00 AM 65.33 2307.13
315 4 0.5 29/08/2019 8:00:00 AM 272.4 9619.81
316 2 0.13 30/08/2019 6:00:00 PM 34.16 1206.36
317 2 0.5 30/08/2019 2:00:00 AM 136.3 4815.2
318 2 0.5 30/08/2019 2:00:00 AM 136.3 4813.43
319 2 0.13 31/08/2019 12:01:00 AM 34.16 1206.36
320 4 1 31/08/2019 6:00:00 AM 543 19176.04
321 4 0.63 31/08/2019 11:32:00 AM 340.7 12031.82
322 2 0.13 31/08/2019 6:00:00 PM 34.16 1206.47
323 2 0.13 01/09/2019 8:00:00 AM 34.16 1206.36
324 2 0.25 01/09/2019 12:30:00 PM 34.16 1206.47
325 2 0.25 02/09/2019 7:00:00 AM 34.16 1206.36
326 0 0 02/09/2019 8:00:00 AM 0 0 all gates are closed
327 1 0.3 03/09/2019 3:30:00 PM 30.52 1077.81
328 2 0.5 09/09/2019 12:30:00 PM 136.9 4834.62
329 6 0.58 09/09/2019 7:00:00 PM 477.8 16873.51
330 4 0.5 10/09/2019 8:00:00 AM 273.5 9658.65
331 4 0.75 10/09/2019 4:00:00 PM 409.6 14465.02
332 4 0.75 11/09/2019 6:00:00 AM 409.5 14461.49
333 2 0.25 11/09/2019 8:00:00 AM 68.82 2430.38
334 2 0.13 11/09/2019 10:00:00 AM 34.31 1211.66
335 2 0.13 12/09/2019 12:01:00 AM 68 2401.42
336 2 0.25 12/09/2019 8:00:00 AM 34.31 1211.66
337 2 0.25 13/09/2019 3:05:00 AM 34.31 1211.66
338 8 1.75 13/09/2019 8:00:00 AM 1898 67027.87
339 8 1.5 14/09/2019 12:12:00 PM 1629 57528.13
340 8 1.75 14/09/2019 12:01:00 AM 1898 67027.87
341 8 1.87 14/09/2019 1:30:00 PM 2023 71442.24
342 8 1.87 14/09/2019 1:30:00 PM 2023 71442.24
343 6 0.6 15/09/2019 8:00:00 AM 478 16880.57
344 2 0.5 15/09/2019 1:00:00 PM 137.2 4845.22
345 6 0.58 16/09/2019 12:01:00 AM 478.2 16887.63 gate opening since 15/9/2019 at 4:0pm
346 6 1.33 16/09/2019 12:15:00 PM 1090 38493.35
347 6 1.2 16/09/2019 8:00:00 PM 684.1 24161.11
348 6 1.21 17/09/2019 12:01:00 AM 684.1 24158.99
349 4 0.5 17/09/2019 8:00:00 AM 274.1 9681.96
350 2 0.5 17/09/2019 10:30:00 AM 136.9 4836.04
351 2 0.13 19/09/2019 8:00:00 AM 34.31 1211.66
352 4 0.63 18/09/2019 12:01:00 AM 341.8 12073.85
353 2 0.13 19/09/2019 8:00:00 PM 34.31 1211.66
354 2 0.13 20/09/2019 12:01:00 AM 34.31 1211.66
355 2 0.5 18/09/2019 10:00:00 AM 136.9 4834.62
356 2 0.5 20/09/2019 12:00:00 PM 134.9 4765.41
357 2 0.5 21/09/2019 12:01:00 AM 134.9 4763.99
358 2 0.25 21/09/2019 9:00:00 AM 34.31 1211.66
359 4 0.5 21/09/2019 2:10:00 PM 137 4838.15
360 2 0.13 26/09/2019 12:01:00 AM 34.34 1212.72
361 8 1 22/09/2019 1:00:00 PM 1099 38811.18
362 8 1.56 24/09/2019 12:01:00 AM 1698 59964.87
363 2 0.5 24/09/2019 12:00:00 PM 68.91 2433.56
364 6 1 22/09/2019 12:00:00 PM 750 26486.25
365 6 1 28/09/2019 3:30:00 PM 822.5 29046.59
366 8 1.56 22/09/2019 4:00:00 PM 481 16986.51
367 8 1.56 23/09/2019 1:13:00 AM 481 16986.51
368 8 1.56 23/09/2019 11:30:00 AM 1698 59964.87
369 4 2 27/09/2019 4:00:00 PM 274 9676.31
370 2 0.5 25/09/2019 8:00:00 AM 136.9 4834.62
371 4 0.75 24/09/2019 4:00:00 PM 404 14267.26
372 2 0.13 25/09/2019 8:00:00 PM 34.34 1212.72
373 2 0.5 27/09/2019 12:01:00 AM 183 6462.64
374 2 0.5 27/09/2019 8:00:00 AM 137.5 4856.87
375 2 0.5 27/09/2019 8:00:00 AM 137.5 4855.81
376 2 0.5 28/09/2019 12:01:00 AM 136.7 4827.56
377 2 0.5 27/09/2019 8:00:00 PM 136.7 4827.56
378 4 0.63 28/09/2019 11:00:00 AM 311.7 11007.69
379 6 1 29/09/2019 12:30:00 AM 822.5 29046.59
380 2 1 29/09/2019 11:00:00 AM 237 8369.65
381 2 0.5 30/09/2019 10:00:00 AM 137.5 4855.81
382 6 1 29/09/2019 4:00:00 PM 822.5 29046.59
383 6 1 30/09/2019 12:01:00 AM 822.5 29046.59
384 2 0.25 02/10/2019 8:00:00 AM 34.45 1216.6
385 2 0.5 01/10/2019 8:00:00 AM 137.5 4855.81
386 8 2.31 01/10/2019 8:00:00 PM 1700 60035.5
387 6 0.75 02/10/2019 4:00:00 PM 615.9 21750.51
388 2 0.25 06/10/2019 9:20:00 AM 68.91 2433.56
389 2 0.13 03/10/2019 12:00:00 PM 34.45 1216.6
390 6 0.75 03/10/2019 12:01:00 AM 615.9 21750.51 gate opening since 2/10/2019at8:0pm
391 2 0.5 03/10/2019 7:00:00 AM 137.2 4846.98
392 2 0.13 04/10/2019 12:01:00 AM 34.45 1216.6
393 2 0.13 04/10/2019 6:45:00 AM 34.46 1216.95
394 0 0 04/10/2019 7:30:00 PM 0 0 all gates are closed
395 2 0.25 07/10/2019 4:00:00 PM 34.45 1216.6
396 2 0.13 07/10/2019 8:00:00 AM 34.46 1216.95
397 0 0 08/10/2019 8:00:00 PM 0 0
398 1 0.13 08/10/2019 4:00:00 PM 34.46 1216.95
399 1 0.13 08/10/2019 10:00:00 AM 34.46 1216.95
Powered by © Water Resources Department (MP). All Rights Reserved.